Weather at Camrose Airport

Public forecast

Using degrees Celsius for public forecast. Weather courtesy of forecast.io.

Closest aviation weather report (METAR) to Camrose Airport

Closest report is Edmonton International Airport, 31.9 nm (59.1 km) WNW.

2024/02/29 07:00 (retrieved 24 minutes ago)

CYEG 290700Z 12012KT 20SM IC FEW180 SCT240 M17/M19 A2930 RMK AC2CI2 AS ASOCTD SLP984

Closest aviation forecast (TAF) to Camrose Airport

Closest forecast is Edmonton International Airport, 31.9 nm (59.1 km) WNW.

2024/02/29 06:45 (retrieved 39 minutes ago)

TAF TAF CYEG 290543Z 2906/0106 12012KT P6SM FEW012 BKN180 BECMG 2907/2909 12008KT FM290900 12008KT P6SM BKN200 BECMG 2910/2912 03008KT BECMG 2912/2914 32014G24KT FM291400 32014G24KT P6SM SCT008 BKN020 TEMPO 2914/2916 6SM -SN BKN008 FM291700 32012G22KT P6SM BKN020 TEMPO 2917/2920 BKN025 FM292000 33015G25KT P6SM -SN BKN025 TEMPO 2920/0103 1 1/2SM -SHSN VV012 FM010300 34012G22KT P6SM -SN SCT025 BKN120 RMK NXT FCST BY 290900Z